Juneau, AK

5:48 AM AKDT on April 27, 2015 (GMT -0800)
Dimond Park | | Change Station
CLOSE
Current Station
Personal Weather Station
Location: Juneau, AK
Elevation: 26 ft
Nearby Weather Stations

Elev 26 ft 58.38 °N, 134.59 °W | Updated 2 minutes ago

Light Rain
Light Rain
41.0 °F
Feels Like 36 °F
N
6.8
Wind Variable Wind from SSW

Today
High -- | Low -- °F
--% Chance of Precip.
Yesterday
High -- | Low -- °F
Precip. -- in
5:14 AM 8:38 PM
Waxing Gibbous, 65% visible
Pressure 29.88 in
Visibility 10.0 miles
Clouds Few 1800 ft
Mostly Cloudy 4200 ft
Mostly Cloudy 8500 ft
Windchill 36 °F
Dew Point 35 °F
Humidity 79%
Rainfall 0.00 in
Snow Depth Not available.
UV 0 out of 12
Pollen Not available.
Air Quality Not available.
Flu Activity Sporadic
METAR PAJN 271253Z 10011KT 10SM -RA FEW018 BKN042 BKN085 04/02 A2988 RMK AO2 RAE17B41 SLP116 P0001 T00440022

More Conditions Fewer Conditions

Pressure 29.88 in
Visibility 10.0 miles
Clouds Few 1800 ft
Mostly Cloudy 4200 ft
Mostly Cloudy 8500 ft
Windchill 36 °F
Dew Point 35 °F
Humidity 79%
Rainfall 0.00 in
Snow Depth Not available.
UV 0 out of 12
Pollen Not available.
Air Quality Not available.
Flu Activity Sporadic
METAR PAJN 271253Z 10011KT 10SM -RA FEW018 BKN042 BKN085 04/02 A2988 RMK AO2 RAE17B41 SLP116 P0001 T00440022

More Conditions Fewer Conditions

10-Day Weather Forecast

Almanac

Astronomy

Apr. 27, 2015 Rise Set
Actual Time
Civil Twilight
Nautical Twilight
Astronomical Twilight
Moon
Length of Visible Light
Length of Day
Tomorrow will be .
, % of the Moon is Illuminated

Today's Extremes

State Highs State Lows

Community

WunderPhotos

Upload Photos

1,817,309 photos uploaded!

WunderBlogs® & News

Nearby

Air Quality

  Air Quality AQ Index Pollutant
Not available.

Snow Depth

Station Depth Elevation

Earthquake Activity

City Distance Mag. Time & Date
Minimum magnitude displayed is 2.5.

Coastal Water Temperatures

Place Temperature

Stations

Nearby Weather Stations

Station Location Temp. Windchill Dew Point Humidity Wind Precip. Elev Updated Type